Terminal Aerodrome Forecast
Issued by NWS Twin Cities, MN

Home | Current Version | Previous Version | Text Only | Print | Product List | Glossary On
Versions: 1 2 3 4 5 6 7 8 9 10 11 12 13 14 15 16 17 18 19 20 21 22 23 24 25 26 27 28 29 30 31 32
000
FTUS43 KMPX 252000 AAA
TAFMSP
TAF AMD
KMSP 252049Z 2521/2624 17005KT P6SM OVC050
     FM260000 14006KT P6SM BKN050 OVC100
     FM261100 06007KT 5SM -SN BR BKN035 OVC060
     FM261400 05008KT 2SM -SN BR OVC022
     FM262000 34008KT 6SM -SN BR OVC018=

USA.gov is the U.S. government's official web portal to all federal, state and local government web resources and services.